createdAt,value
2023-03-15T00:01:00.864Z,1.81
2023-03-15T00:03:29.133Z,1.79
2023-03-15T00:05:57.003Z,1.72
2023-03-15T00:08:25.768Z,1.65
2023-03-15T00:10:53.788Z,1.58
2023-03-15T00:13:21.869Z,1.54
2023-03-15T00:15:51.012Z,1.49
2023-03-15T00:18:19.864Z,1.47
2023-03-15T00:20:48.532Z,1.46
2023-03-15T00:23:16.750Z,1.45
2023-03-15T00:25:45.614Z,1.44
2023-03-15T00:28:13.574Z,1.43
2023-03-15T00:30:41.606Z,1.42
2023-03-15T00:33:13.748Z,1.42
2023-03-15T00:35:42.925Z,1.39
2023-03-15T00:38:10.741Z,1.38
2023-03-15T00:40:38.700Z,1.37
2023-03-15T00:43:06.550Z,1.36
2023-03-15T00:45:34.345Z,1.36
2023-03-15T00:48:02.141Z,1.38
2023-03-15T00:50:30.249Z,1.39
2023-03-15T00:52:58.366Z,1.42
2023-03-15T00:55:27.188Z,1.41
2023-03-15T00:57:54.979Z,1.41
2023-03-15T01:00:25.153Z,1.41
2023-03-15T01:02:53.803Z,1.39
2023-03-15T01:05:22.013Z,1.38
2023-03-15T01:07:49.758Z,1.36
2023-03-15T01:10:18.086Z,1.34
2023-03-15T01:12:45.818Z,1.31
2023-03-15T01:15:14.877Z,1.30
2023-03-15T01:17:42.788Z,1.29
2023-03-15T01:20:14.594Z,1.27
2023-03-15T01:22:42.323Z,1.24
2023-03-15T01:25:10.509Z,1.20
2023-03-15T01:27:38.300Z,1.20
2023-03-15T01:30:07.054Z,1.18
2023-03-15T01:32:34.908Z,1.16
2023-03-15T01:35:02.973Z,1.13
2023-03-15T01:37:30.716Z,1.09
2023-03-15T01:39:58.434Z,1.04
2023-03-15T01:42:26.181Z,1.02
2023-03-15T01:44:56.510Z,0.99
2023-03-15T01:47:27.201Z,0.95
2023-03-15T01:49:59.520Z,0.93
2023-03-15T01:52:31.983Z,0.91
2023-03-15T01:55:25.989Z,0.90
2023-03-15T01:57:56.741Z,0.89
2023-03-15T02:00:25.524Z,0.89
2023-03-15T02:02:55.973Z,0.88
2023-03-15T02:05:27.724Z,0.88
2023-03-15T02:07:56.333Z,0.86
2023-03-15T02:10:35.740Z,0.84
2023-03-15T02:13:03.682Z,0.83
2023-03-15T02:15:31.546Z,0.79
2023-03-15T02:17:59.261Z,0.76
2023-03-15T02:20:32.821Z,0.74
2023-03-15T02:23:02.528Z,0.70
2023-03-15T02:25:49.243Z,0.64
2023-03-15T02:28:18.186Z,0.59
2023-03-15T02:30:46.866Z,0.55
2023-03-15T02:33:19.237Z,0.54
2023-03-15T02:35:47.320Z,0.53
2023-03-15T02:38:15.050Z,0.53
2023-03-15T02:40:43.845Z,0.53
2023-03-15T02:43:23.530Z,0.54
2023-03-15T02:45:51.906Z,0.55
2023-03-15T02:48:20.224Z,0.53
2023-03-15T02:50:50.281Z,0.54
2023-03-15T02:53:20.076Z,0.55
2023-03-15T02:55:48.151Z,0.56
2023-03-15T02:58:16.217Z,0.58
2023-03-15T03:00:44.505Z,0.58
2023-03-15T03:03:13.837Z,0.58
2023-03-15T03:05:41.685Z,0.57
2023-03-15T03:08:09.482Z,0.53
2023-03-15T03:10:37.513Z,0.51
2023-03-15T03:13:05.335Z,0.51
2023-03-15T03:15:33.081Z,0.51
2023-03-15T03:18:00.854Z,0.51
2023-03-15T03:20:28.703Z,0.48
2023-03-15T03:22:56.488Z,0.46
2023-03-15T03:25:27.386Z,0.43
2023-03-15T03:27:57.400Z,0.40
2023-03-15T03:30:25.350Z,0.36
2023-03-15T03:32:53.259Z,0.29
2023-03-15T03:35:22.044Z,0.25
2023-03-15T03:37:49.772Z,0.22
2023-03-15T03:40:17.682Z,0.22
2023-03-15T03:42:45.472Z,0.24
2023-03-15T03:45:13.234Z,0.25
2023-03-15T03:47:41.258Z,0.27
2023-03-15T03:50:10.647Z,0.28
2023-03-15T03:52:38.803Z,0.27
2023-03-15T03:55:06.614Z,0.28
2023-03-15T03:57:34.473Z,0.27
2023-03-15T04:00:02.560Z,0.26
2023-03-15T04:02:30.306Z,0.24
2023-03-15T04:04:59.788Z,0.24
2023-03-15T04:07:28.211Z,0.24
2023-03-15T04:09:55.945Z,0.22
2023-03-15T04:12:23.717Z,0.21
2023-03-15T04:14:51.478Z,0.21
2023-03-15T04:17:19.876Z,0.20
2023-03-15T04:19:47.762Z,0.19
2023-03-15T04:22:16.126Z,0.19
2023-03-15T04:24:44.346Z,0.18
2023-03-15T04:27:14.809Z,0.17
2023-03-15T04:29:43.935Z,0.17
2023-03-15T04:32:11.745Z,0.18
2023-03-15T04:34:39.902Z,0.18
2023-03-15T04:37:07.659Z,0.18
2023-03-15T04:39:36.035Z,0.17
2023-03-15T04:42:03.883Z,0.16
2023-03-15T04:44:31.655Z,0.12
2023-03-15T04:46:59.469Z,0.10
2023-03-15T04:49:27.699Z,0.08
2023-03-15T04:51:55.496Z,0.08
2023-03-15T04:54:25.020Z,0.04
2023-03-15T04:56:52.683Z,-0.01
2023-03-15T04:59:20.504Z,-0.04
2023-03-15T05:01:49.487Z,-0.06
2023-03-15T05:04:17.331Z,-0.07
2023-03-15T05:06:45.822Z,-0.09
2023-03-15T05:09:19.442Z,-0.10
2023-03-15T05:11:48.207Z,-0.10
2023-03-15T05:14:16.348Z,-0.10
2023-03-15T05:16:44.496Z,-0.11
2023-03-15T05:19:12.341Z,-0.11
2023-03-15T05:21:39.985Z,-0.11
2023-03-15T05:24:07.797Z,-0.12
2023-03-15T05:26:35.520Z,-0.14
2023-03-15T05:29:03.855Z,-0.18
2023-03-15T05:31:37.092Z,-0.22
2023-03-15T05:34:05.530Z,-0.23
2023-03-15T05:36:34.002Z,-0.23
2023-03-15T05:39:03.387Z,-0.24
2023-03-15T05:41:31.615Z,-0.25
2023-03-15T05:43:59.404Z,-0.26
2023-03-15T05:46:27.466Z,-0.28
2023-03-15T05:48:55.201Z,-0.30
2023-03-15T05:51:23.075Z,-0.34
2023-03-15T05:53:50.822Z,-0.38
2023-03-15T05:56:18.681Z,-0.43
2023-03-15T05:58:46.786Z,-0.48
2023-03-15T06:01:15.315Z,-0.54
2023-03-15T06:03:43.349Z,-0.59
2023-03-15T06:06:11.258Z,-0.63
2023-03-15T06:08:39.002Z,-0.67
2023-03-15T06:11:07.108Z,-0.73
2023-03-15T06:13:35.035Z,-0.77
2023-03-15T06:16:03.470Z,-0.81
2023-03-15T06:18:31.198Z,-0.85
2023-03-15T06:20:59.107Z,-0.88
2023-03-15T06:23:28.004Z,-0.91
2023-03-15T06:25:56.138Z,-0.94
2023-03-15T06:28:23.909Z,-0.96
2023-03-15T06:30:52.987Z,-0.97
2023-03-15T06:33:21.536Z,-0.97
2023-03-15T06:35:50.732Z,-0.96
2023-03-15T06:38:18.436Z,-0.95
2023-03-15T06:40:46.625Z,-0.92
2023-03-15T06:43:19.503Z,-0.88
2023-03-15T06:45:47.398Z,-0.82
2023-03-15T06:48:15.183Z,-0.76
2023-03-15T06:50:47.397Z,-0.69
2023-03-15T06:53:16.128Z,-0.62
2023-03-15T06:55:44.575Z,-0.23
2023-03-15T06:58:12.830Z,0.60
2023-03-15T07:00:41.173Z,1.35
2023-03-15T07:03:08.999Z,2.04
2023-03-15T07:05:37.411Z,2.73
2023-03-15T07:08:05.738Z,3.40
2023-03-15T07:10:33.423Z,3.94
2023-03-15T07:13:01.246Z,4.34
2023-03-15T07:15:29.105Z,4.70
2023-03-15T07:17:56.904Z,4.80
2023-03-15T07:20:24.687Z,5.01
2023-03-15T07:22:53.001Z,5.11
2023-03-15T07:25:24.144Z,5.08
2023-03-15T07:27:52.951Z,5.03
2023-03-15T07:30:21.029Z,5.03
2023-03-15T07:32:49.071Z,5.01
2023-03-15T07:35:18.368Z,4.90
2023-03-15T07:37:46.449Z,4.82
2023-03-15T07:40:16.328Z,4.70
2023-03-15T07:42:44.577Z,4.60
2023-03-15T07:45:12.744Z,4.63
2023-03-15T07:47:41.087Z,4.70
2023-03-15T07:50:09.355Z,4.81
2023-03-15T07:52:37.130Z,4.86
2023-03-15T07:55:08.390Z,4.92
2023-03-15T07:57:36.615Z,4.94
2023-03-15T08:00:05.872Z,4.90
2023-03-15T08:02:34.022Z,4.84
2023-03-15T08:05:04.466Z,4.76
2023-03-15T08:07:32.597Z,4.70
2023-03-15T08:10:01.684Z,4.67
2023-03-15T08:12:30.618Z,4.66
2023-03-15T08:14:58.623Z,4.65
2023-03-15T08:17:26.383Z,4.64
2023-03-15T08:19:54.123Z,4.63
2023-03-15T08:22:22.342Z,4.62
2023-03-15T08:24:53.315Z,4.62
2023-03-15T08:27:21.157Z,4.64
2023-03-15T08:29:48.892Z,4.68
2023-03-15T08:32:16.956Z,4.69
2023-03-15T08:34:45.309Z,4.67
2023-03-15T08:37:13.623Z,4.69
2023-03-15T08:39:42.271Z,4.68
2023-03-15T08:42:10.611Z,4.70
2023-03-15T08:44:38.328Z,4.72
2023-03-15T08:47:06.035Z,4.75
2023-03-15T08:49:33.866Z,4.80
2023-03-15T08:52:01.554Z,4.85
2023-03-15T08:54:32.718Z,4.93
2023-03-15T08:57:00.860Z,4.99
2023-03-15T08:59:32.162Z,5.06
2023-03-15T09:02:00.741Z,5.16
2023-03-15T09:04:28.701Z,5.23
2023-03-15T09:06:59.356Z,5.33
2023-03-15T09:09:27.294Z,5.40
2023-03-15T09:11:56.355Z,5.47
2023-03-15T09:14:24.064Z,5.52
2023-03-15T09:16:52.674Z,5.58
2023-03-15T09:19:20.610Z,5.62
2023-03-15T09:21:48.647Z,5.65
2023-03-15T09:24:16.677Z,5.72
2023-03-15T09:26:44.504Z,5.80
2023-03-15T09:29:12.463Z,5.88
2023-03-15T09:31:41.503Z,5.94
2023-03-15T09:34:10.670Z,6.01
2023-03-15T09:36:39.129Z,6.11
2023-03-15T09:39:07.084Z,6.27
2023-03-15T09:41:41.391Z,6.41
2023-03-15T09:44:16.455Z,6.52
2023-03-15T09:46:55.090Z,6.65
2023-03-15T09:49:42.072Z,6.76
2023-03-15T09:52:17.056Z,6.88
2023-03-15T09:54:49.806Z,6.97
2023-03-15T09:57:21.769Z,7.07
2023-03-15T09:59:52.617Z,7.15
2023-03-15T10:02:26.324Z,7.23
2023-03-15T10:05:16.389Z,7.31
2023-03-15T10:07:44.615Z,7.40
2023-03-15T10:10:20.020Z,7.49
2023-03-15T10:12:52.045Z,7.53
2023-03-15T10:15:27.013Z,7.58
2023-03-15T10:18:04.084Z,7.66
2023-03-15T10:20:44.260Z,7.75
2023-03-15T10:23:18.227Z,7.82
2023-03-15T10:25:46.944Z,7.89
2023-03-15T10:28:23.384Z,8.01
2023-03-15T10:30:51.799Z,8.12
2023-03-15T10:33:32.125Z,8.15
2023-03-15T10:36:10.536Z,8.17
2023-03-15T10:38:39.846Z,8.20
2023-03-15T10:41:07.845Z,8.27
2023-03-15T10:43:41.607Z,8.36
2023-03-15T10:46:13.902Z,8.42
2023-03-15T10:49:02.100Z,8.49
2023-03-15T10:51:33.606Z,8.56
2023-03-15T10:54:11.718Z,8.62
2023-03-15T10:59:58.073Z,8.75
2023-03-15T11:02:26.124Z,8.80
2023-03-15T11:05:02.499Z,8.82
2023-03-15T11:07:34.462Z,8.83
2023-03-15T11:10:03.923Z,8.89
2023-03-15T11:12:34.979Z,9.00
2023-03-15T11:15:14.175Z,9.08
2023-03-15T11:17:47.093Z,9.12
2023-03-15T11:20:26.175Z,9.11
2023-03-15T11:22:54.418Z,9.09
2023-03-15T11:25:26.306Z,9.13
2023-03-15T11:27:54.402Z,9.19
2023-03-15T11:30:25.960Z,9.18
2023-03-15T11:32:54.356Z,9.17
2023-03-15T11:35:32.387Z,9.19
2023-03-15T11:38:14.630Z,9.23
2023-03-15T11:40:49.087Z,9.33
2023-03-15T11:43:23.202Z,9.42
2023-03-15T11:45:54.046Z,9.48
2023-03-15T11:48:36.598Z,9.51
2023-03-15T11:51:05.913Z,9.52
2023-03-15T11:53:45.393Z,9.52
2023-03-15T11:56:26.991Z,9.56
2023-03-15T11:59:11.031Z,9.58
2023-03-15T12:01:54.718Z,9.58
2023-03-15T12:04:25.645Z,9.57
2023-03-15T12:06:54.344Z,9.57
2023-03-15T12:09:37.632Z,9.62
2023-03-15T12:12:24.125Z,9.69
2023-03-15T12:15:02.458Z,9.75
2023-03-15T12:17:38.110Z,9.82
2023-03-15T12:20:12.255Z,9.90
2023-03-15T12:22:54.007Z,9.94
2023-03-15T12:25:48.851Z,9.97
2023-03-15T12:28:44.239Z,9.97
2023-03-15T12:31:13.994Z,10.03
2023-03-15T12:33:53.118Z,10.07
2023-03-15T12:36:39.600Z,10.07
2023-03-15T12:39:16.365Z,10.06
2023-03-15T12:41:46.875Z,10.08
2023-03-15T12:44:18.975Z,10.08
2023-03-15T12:46:47.021Z,10.04
2023-03-15T12:49:29.269Z,10.05
2023-03-15T12:52:04.288Z,10.03
2023-03-15T12:54:39.781Z,9.97
2023-03-15T12:57:10.876Z,9.94
2023-03-15T12:59:54.871Z,9.91
2023-03-15T13:02:35.845Z,9.83
2023-03-15T13:05:10.481Z,9.83
2023-03-15T13:07:51.088Z,9.83
2023-03-15T13:10:20.005Z,9.81
2023-03-15T13:12:55.757Z,9.83
2023-03-15T13:15:26.698Z,9.89
2023-03-15T13:17:59.169Z,9.94
2023-03-15T13:20:30.940Z,9.90
2023-03-15T13:23:17.702Z,9.82
2023-03-15T13:25:53.477Z,9.82
2023-03-15T13:28:24.661Z,9.81
2023-03-15T13:30:53.840Z,9.80
2023-03-15T13:33:21.753Z,9.81
2023-03-15T13:35:58.822Z,9.75
2023-03-15T13:38:29.367Z,9.68
2023-03-15T13:40:58.540Z,9.64
2023-03-15T13:43:27.772Z,9.59
2023-03-15T13:45:56.859Z,9.55
2023-03-15T13:48:26.755Z,9.51
2023-03-15T13:50:56.195Z,9.48
2023-03-15T13:53:35.630Z,9.46
2023-03-15T13:56:15.893Z,9.38
2023-03-15T13:58:43.944Z,9.30
2023-03-15T14:01:13.071Z,9.28
2023-03-15T14:03:43.432Z,9.29
2023-03-15T14:06:13.800Z,9.34
2023-03-15T14:08:41.678Z,9.41
2023-03-15T14:11:24.627Z,9.47
2023-03-15T14:13:54.246Z,9.52
2023-03-15T14:16:53.637Z,9.53
2023-03-15T14:19:32.659Z,9.61
2023-03-15T14:22:01.900Z,9.63
2023-03-15T14:24:29.770Z,9.61
2023-03-15T14:26:59.388Z,9.60
2023-03-15T14:29:29.655Z,9.60
2023-03-15T14:32:02.333Z,9.60
2023-03-15T14:34:33.686Z,9.59
2023-03-15T14:37:05.151Z,9.57
2023-03-15T14:39:40.577Z,9.55
2023-03-15T14:42:12.283Z,9.52
2023-03-15T14:44:40.058Z,9.44
2023-03-15T14:47:16.130Z,9.38
2023-03-15T14:49:43.900Z,9.33
2023-03-15T14:52:13.034Z,9.28
2023-03-15T14:54:46.457Z,9.26
2023-03-15T14:57:14.226Z,9.25
2023-03-15T14:59:41.956Z,9.23
2023-03-15T15:02:15.398Z,9.20
2023-03-15T15:04:44.012Z,9.16
2023-03-15T15:07:13.511Z,9.14
2023-03-15T15:09:45.664Z,9.09
2023-03-15T15:12:13.709Z,8.99
2023-03-15T15:14:42.952Z,8.91
2023-03-15T15:17:11.390Z,8.82
2023-03-15T15:19:39.206Z,8.76
2023-03-15T15:22:07.062Z,8.69
2023-03-15T15:24:34.842Z,8.64
2023-03-15T15:27:02.767Z,8.62
2023-03-15T15:29:30.543Z,8.63
2023-03-15T15:31:58.514Z,8.64
2023-03-15T15:34:26.208Z,8.65
2023-03-15T15:36:54.010Z,8.62
2023-03-15T15:39:23.148Z,8.60
2023-03-15T15:41:51.096Z,8.60
2023-03-15T15:44:23.910Z,8.58
2023-03-15T15:46:52.112Z,8.60
2023-03-15T15:49:21.037Z,8.60
2023-03-15T15:51:50.164Z,8.60
2023-03-15T15:54:24.976Z,8.58
2023-03-15T15:56:56.726Z,8.55
2023-03-15T15:59:25.942Z,8.54
2023-03-15T16:02:02.655Z,8.51
2023-03-15T16:04:31.199Z,8.42
2023-03-15T16:07:01.861Z,8.32
2023-03-15T16:09:31.644Z,8.25
2023-03-15T16:11:59.960Z,8.17
2023-03-15T16:14:27.845Z,8.13
2023-03-15T16:16:55.576Z,8.10
2023-03-15T16:19:23.599Z,8.06
2023-03-15T16:21:54.462Z,8.02
2023-03-15T16:24:25.995Z,7.98
2023-03-15T16:26:58.337Z,7.93
2023-03-15T16:29:32.385Z,7.89
2023-03-15T16:32:10.186Z,7.85
2023-03-15T16:34:45.476Z,7.82
2023-03-15T16:37:14.676Z,7.79
2023-03-15T16:39:44.493Z,7.74
2023-03-15T16:42:13.211Z,7.68
2023-03-15T16:44:41.335Z,7.62
2023-03-15T16:47:09.437Z,7.57
2023-03-15T16:49:37.310Z,7.54
2023-03-15T16:52:06.521Z,7.53
2023-03-15T16:54:41.349Z,7.48
2023-03-15T16:57:35.553Z,7.42
2023-03-15T17:00:05.371Z,7.35
2023-03-15T17:02:33.333Z,7.32
2023-03-15T17:05:01.468Z,7.28
2023-03-15T17:07:31.773Z,7.22
2023-03-15T17:10:03.127Z,7.18
2023-03-15T17:12:30.925Z,7.14
2023-03-15T17:15:00.169Z,7.11
2023-03-15T17:17:29.415Z,7.07
2023-03-15T17:19:57.923Z,7.03
2023-03-15T17:22:26.046Z,6.99
2023-03-15T17:24:54.290Z,6.96
2023-03-15T17:27:22.826Z,6.92
2023-03-15T17:29:51.146Z,6.89
2023-03-15T17:32:19.015Z,6.86
2023-03-15T17:34:47.451Z,6.83
2023-03-15T17:37:16.752Z,6.81
2023-03-15T17:39:45.296Z,6.78
2023-03-15T17:42:13.937Z,6.75
2023-03-15T17:44:42.073Z,6.72
2023-03-15T17:47:13.567Z,6.71
2023-03-15T17:49:41.550Z,6.69
2023-03-15T17:52:16.071Z,6.69
2023-03-15T17:54:44.038Z,6.67
2023-03-15T17:57:15.096Z,6.65
2023-03-15T17:59:42.904Z,6.63
2023-03-15T18:02:22.617Z,6.61
2023-03-15T18:04:50.443Z,6.59
2023-03-15T18:07:18.811Z,6.58
2023-03-15T18:09:46.584Z,6.56
2023-03-15T18:12:15.453Z,6.55
2023-03-15T18:14:43.652Z,6.53
2023-03-15T18:17:11.542Z,6.49
2023-03-15T18:19:39.407Z,6.47
2023-03-15T18:22:16.823Z,6.45
2023-03-15T18:24:47.014Z,6.45
2023-03-15T18:27:14.958Z,6.44
2023-03-15T18:29:42.770Z,6.45
2023-03-15T18:32:10.703Z,6.44
2023-03-15T18:34:38.894Z,6.44
2023-03-15T18:37:06.533Z,6.43
2023-03-15T18:39:38.502Z,6.43
2023-03-15T18:42:06.244Z,6.43
2023-03-15T18:44:35.572Z,6.42
2023-03-15T18:47:05.258Z,6.41
2023-03-15T18:49:34.083Z,6.41
2023-03-15T18:52:01.927Z,6.42
2023-03-15T18:54:29.917Z,6.42
2023-03-15T18:56:58.160Z,6.42
2023-03-15T18:59:26.080Z,6.43
2023-03-15T19:01:54.419Z,6.43
2023-03-15T19:04:22.267Z,6.44
2023-03-15T19:06:50.076Z,6.44
2023-03-15T19:09:17.964Z,6.46
2023-03-15T19:11:46.677Z,6.46
2023-03-15T19:14:14.460Z,6.47
2023-03-15T19:16:42.310Z,6.47
2023-03-15T19:19:11.245Z,6.46
2023-03-15T19:21:39.289Z,6.44
2023-03-15T19:24:07.203Z,6.43
2023-03-15T19:26:35.048Z,6.43
2023-03-15T19:29:04.114Z,6.43
2023-03-15T19:31:32.869Z,6.42
2023-03-15T19:34:01.509Z,6.41
2023-03-15T19:36:29.414Z,6.41
2023-03-15T19:38:57.208Z,6.42
2023-03-15T19:41:25.210Z,6.42
2023-03-15T19:43:53.036Z,6.42
2023-03-15T19:46:20.862Z,6.42
2023-03-15T19:48:48.920Z,6.41
2023-03-15T19:51:17.396Z,6.41
2023-03-15T19:53:45.360Z,6.41
2023-03-15T19:56:13.221Z,6.40
2023-03-15T19:58:41.099Z,6.39
2023-03-15T20:01:08.838Z,6.39
2023-03-15T20:03:37.272Z,6.39
2023-03-15T20:06:08.890Z,6.39
2023-03-15T20:08:36.774Z,6.41
2023-03-15T20:11:06.753Z,6.40
2023-03-15T20:13:35.740Z,6.41
2023-03-15T20:16:07.114Z,6.41
2023-03-15T20:18:35.304Z,6.41
2023-03-15T20:21:03.718Z,6.41
2023-03-15T20:23:31.488Z,6.40
2023-03-15T20:26:10.997Z,6.38
2023-03-15T20:28:39.668Z,6.39
2023-03-15T20:31:08.540Z,6.38
2023-03-15T20:33:36.473Z,6.38
2023-03-15T20:36:04.875Z,6.37
2023-03-15T20:38:34.545Z,6.37
2023-03-15T20:41:02.674Z,6.36
2023-03-15T20:43:31.456Z,6.36
2023-03-15T20:46:00.435Z,6.35
2023-03-15T20:48:29.262Z,6.35
2023-03-15T20:50:58.076Z,6.36
2023-03-15T20:53:26.108Z,6.35
2023-03-15T20:55:54.028Z,6.35
2023-03-15T20:58:21.890Z,6.35
2023-03-15T21:00:49.811Z,6.35
2023-03-15T21:03:18.075Z,6.34
2023-03-15T21:05:46.531Z,6.35
2023-03-15T21:08:14.448Z,6.34
2023-03-15T21:10:42.228Z,6.33
2023-03-15T21:13:11.269Z,6.31
2023-03-15T21:15:49.452Z,6.30
2023-03-15T21:18:18.419Z,6.29
2023-03-15T21:20:46.504Z,6.28
2023-03-15T21:23:14.763Z,6.28
2023-03-15T21:25:42.550Z,6.28
2023-03-15T21:28:11.172Z,6.28
2023-03-15T21:30:39.083Z,6.28
2023-03-15T21:33:07.064Z,6.28
2023-03-15T21:35:35.154Z,6.29
2023-03-15T21:38:03.644Z,6.30
2023-03-15T21:40:31.636Z,6.30
2023-03-15T21:42:59.417Z,6.30
2023-03-15T21:45:27.354Z,6.30
2023-03-15T21:47:55.309Z,6.30
2023-03-15T21:50:23.546Z,6.31
2023-03-15T21:52:51.737Z,6.30
2023-03-15T21:55:19.798Z,6.29
2023-03-15T21:57:47.741Z,6.28
2023-03-15T22:00:22.877Z,6.27
2023-03-15T22:02:55.580Z,6.27
2023-03-15T22:05:24.581Z,6.27
2023-03-15T22:07:52.515Z,6.28
2023-03-15T22:10:20.540Z,6.28
2023-03-15T22:12:50.288Z,6.28
2023-03-15T22:15:20.460Z,6.28
2023-03-15T22:17:48.523Z,6.27
2023-03-15T22:20:17.084Z,6.26
2023-03-15T22:22:45.709Z,6.26
2023-03-15T22:25:14.416Z,6.25
2023-03-15T22:27:42.361Z,6.26
2023-03-15T22:30:13.716Z,6.25
2023-03-15T22:32:45.189Z,6.24
2023-03-15T22:35:14.063Z,6.24
2023-03-15T22:37:42.208Z,6.24
2023-03-15T22:40:16.319Z,6.23
2023-03-15T22:42:44.308Z,6.23
2023-03-15T22:45:12.318Z,6.24
2023-03-15T22:47:40.053Z,6.24
2023-03-15T22:50:08.725Z,6.23
2023-03-15T22:52:36.514Z,6.24
2023-03-15T22:55:05.215Z,6.25
2023-03-15T22:57:33.854Z,6.25
2023-03-15T23:00:02.190Z,6.26
2023-03-15T23:02:30.004Z,6.26
2023-03-15T23:04:57.876Z,6.26
2023-03-15T23:07:25.919Z,6.27
2023-03-15T23:09:54.029Z,6.28
2023-03-15T23:12:27.087Z,6.28
2023-03-15T23:15:04.027Z,6.29
2023-03-15T23:17:32.273Z,6.29
2023-03-15T23:19:59.980Z,6.30
2023-03-15T23:22:27.882Z,6.31
2023-03-15T23:24:58.211Z,6.32
2023-03-15T23:27:26.533Z,6.33
2023-03-15T23:29:55.325Z,6.34
2023-03-15T23:32:25.149Z,6.35
2023-03-15T23:34:54.959Z,6.36
2023-03-15T23:37:24.342Z,6.38
2023-03-15T23:39:53.683Z,6.39
2023-03-15T23:42:25.994Z,6.40
2023-03-15T23:44:55.142Z,6.41
2023-03-15T23:47:23.839Z,6.42
2023-03-15T23:49:51.867Z,6.43
2023-03-15T23:52:19.895Z,6.44
2023-03-15T23:54:47.816Z,6.45
2023-03-15T23:57:16.749Z,6.45
2023-03-15T23:59:44.593Z,6.47
